sensor_id;sensor_type;location;lat;lon;timestamp;P1;durP1;ratioP1;P2;durP2;ratioP2
22030;SDS011;11179;52.106;21.024;2023-04-22T00:02:19;35.43;;;12.77;;
22030;SDS011;11179;52.106;21.024;2023-04-22T00:04:44;22.73;;;10.50;;
22030;SDS011;11179;52.106;21.024;2023-04-22T00:07:10;23.40;;;9.77;;
22030;SDS011;11179;52.106;21.024;2023-04-22T00:09:37;31.07;;;11.80;;
22030;SDS011;11179;52.106;21.024;2023-04-22T00:12:02;24.33;;;11.40;;
22030;SDS011;11179;52.106;21.024;2023-04-22T00:14:28;26.23;;;10.50;;
22030;SDS011;11179;52.106;21.024;2023-04-22T00:16:53;25.23;;;10.77;;
22030;SDS011;11179;52.106;21.024;2023-04-22T00:19:20;27.10;;;10.97;;
22030;SDS011;11179;52.106;21.024;2023-04-22T00:21:45;24.80;;;10.93;;
22030;SDS011;11179;52.106;21.024;2023-04-22T00:24:11;32.97;;;11.17;;
22030;SDS011;11179;52.106;21.024;2023-04-22T00:26:36;23.60;;;10.60;;
22030;SDS011;11179;52.106;21.024;2023-04-22T00:29:01;25.63;;;10.73;;
22030;SDS011;11179;52.106;21.024;2023-04-22T00:31:27;31.33;;;11.90;;
22030;SDS011;11179;52.106;21.024;2023-04-22T00:33:52;21.57;;;11.00;;
22030;SDS011;11179;52.106;21.024;2023-04-22T00:36:17;23.80;;;11.07;;
22030;SDS011;11179;52.106;21.024;2023-04-22T00:38:44;32.43;;;10.90;;
22030;SDS011;11179;52.106;21.024;2023-04-22T00:41:13;20.23;;;10.67;;
22030;SDS011;11179;52.106;21.024;2023-04-22T00:43:39;22.73;;;10.20;;
22030;SDS011;11179;52.106;21.024;2023-04-22T00:46:04;20.23;;;9.93;;
22030;SDS011;11179;52.106;21.024;2023-04-22T00:48:30;21.23;;;9.73;;
22030;SDS011;11179;52.106;21.024;2023-04-22T00:50:55;19.93;;;10.10;;
22030;SDS011;11179;52.106;21.024;2023-04-22T00:53:21;24.10;;;10.43;;
22030;SDS011;11179;52.106;21.024;2023-04-22T00:55:46;20.50;;;9.23;;
22030;SDS011;11179;52.106;21.024;2023-04-22T00:58:12;30.63;;;10.00;;
22030;SDS011;11179;52.106;21.024;2023-04-22T01:00:37;21.43;;;10.87;;
22030;SDS011;11179;52.106;21.024;2023-04-22T01:03:02;25.80;;;10.60;;
22030;SDS011;11179;52.106;21.024;2023-04-22T01:05:31;20.50;;;10.53;;
22030;SDS011;11179;52.106;21.024;2023-04-22T01:07:57;23.37;;;10.50;;
22030;SDS011;11179;52.106;21.024;2023-04-22T01:10:22;20.07;;;11.17;;
22030;SDS011;11179;52.106;21.024;2023-04-22T01:12:48;22.40;;;12.27;;
22030;SDS011;11179;52.106;21.024;2023-04-22T01:15:13;24.73;;;10.70;;
22030;SDS011;11179;52.106;21.024;2023-04-22T01:17:38;25.60;;;10.87;;
22030;SDS011;11179;52.106;21.024;2023-04-22T01:20:04;24.53;;;10.43;;
22030;SDS011;11179;52.106;21.024;2023-04-22T01:22:33;25.33;;;11.57;;
22030;SDS011;11179;52.106;21.024;2023-04-22T01:25:01;25.47;;;11.63;;
22030;SDS011;11179;52.106;21.024;2023-04-22T01:27:27;27.03;;;10.73;;
22030;SDS011;11179;52.106;21.024;2023-04-22T01:29:52;25.50;;;10.67;;
22030;SDS011;11179;52.106;21.024;2023-04-22T01:32:20;22.80;;;11.87;;
22030;SDS011;11179;52.106;21.024;2023-04-22T01:34:45;26.93;;;12.27;;
22030;SDS011;11179;52.106;21.024;2023-04-22T01:37:11;26.50;;;11.17;;
22030;SDS011;11179;52.106;21.024;2023-04-22T01:39:36;22.73;;;10.20;;
22030;SDS011;11179;52.106;21.024;2023-04-22T01:42:02;22.17;;;11.23;;
22030;SDS011;11179;52.106;21.024;2023-04-22T01:44:27;20.90;;;10.23;;
22030;SDS011;11179;52.106;21.024;2023-04-22T01:46:53;20.37;;;11.00;;
22030;SDS011;11179;52.106;21.024;2023-04-22T01:49:18;22.73;;;10.73;;
22030;SDS011;11179;52.106;21.024;2023-04-22T01:51:44;24.20;;;11.47;;
22030;SDS011;11179;52.106;21.024;2023-04-22T01:54:10;25.53;;;12.40;;
22030;SDS011;11179;52.106;21.024;2023-04-22T01:56:35;24.33;;;11.70;;
22030;SDS011;11179;52.106;21.024;2023-04-22T01:59:02;31.13;;;13.67;;
22030;SDS011;11179;52.106;21.024;2023-04-22T02:01:28;25.00;;;11.90;;
22030;SDS011;11179;52.106;21.024;2023-04-22T02:03:53;27.17;;;11.43;;
22030;SDS011;11179;52.106;21.024;2023-04-22T02:06:18;27.10;;;11.53;;
22030;SDS011;11179;52.106;21.024;2023-04-22T02:08:44;28.93;;;10.57;;
22030;SDS011;11179;52.106;21.024;2023-04-22T02:11:09;24.50;;;11.90;;
22030;SDS011;11179;52.106;21.024;2023-04-22T02:13:38;24.00;;;11.30;;
22030;SDS011;11179;52.106;21.024;2023-04-22T02:16:04;31.80;;;11.60;;
22030;SDS011;11179;52.106;21.024;2023-04-22T02:18:30;22.47;;;11.50;;
22030;SDS011;11179;52.106;21.024;2023-04-22T02:20:56;28.03;;;11.60;;
22030;SDS011;11179;52.106;21.024;2023-04-22T02:23:21;23.13;;;12.17;;
22030;SDS011;11179;52.106;21.024;2023-04-22T02:25:48;22.87;;;10.97;;
22030;SDS011;11179;52.106;21.024;2023-04-22T02:28:14;21.70;;;11.73;;
22030;SDS011;11179;52.106;21.024;2023-04-22T02:30:39;24.57;;;11.80;;
22030;SDS011;11179;52.106;21.024;2023-04-22T02:33:05;19.53;;;11.10;;
22030;SDS011;11179;52.106;21.024;2023-04-22T02:35:30;21.80;;;10.93;;
22030;SDS011;11179;52.106;21.024;2023-04-22T02:37:55;24.57;;;11.03;;
22030;SDS011;11179;52.106;21.024;2023-04-22T02:40:21;24.17;;;10.80;;
22030;SDS011;11179;52.106;21.024;2023-04-22T02:42:46;25.57;;;12.97;;
22030;SDS011;11179;52.106;21.024;2023-04-22T02:45:12;22.83;;;11.20;;
22030;SDS011;11179;52.106;21.024;2023-04-22T02:47:38;24.50;;;10.80;;
22030;SDS011;11179;52.106;21.024;2023-04-22T02:50:03;22.83;;;10.00;;
22030;SDS011;11179;52.106;21.024;2023-04-22T02:52:29;23.10;;;11.20;;
22030;SDS011;11179;52.106;21.024;2023-04-22T02:54:55;27.63;;;10.50;;
22030;SDS011;11179;52.106;21.024;2023-04-22T02:57:20;23.00;;;11.20;;
22030;SDS011;11179;52.106;21.024;2023-04-22T02:59:46;21.93;;;11.27;;
22030;SDS011;11179;52.106;21.024;2023-04-22T03:02:11;25.90;;;11.27;;
22030;SDS011;11179;52.106;21.024;2023-04-22T03:04:36;25.20;;;11.40;;
22030;SDS011;11179;52.106;21.024;2023-04-22T03:07:02;21.97;;;11.13;;
22030;SDS011;11179;52.106;21.024;2023-04-22T03:09:27;25.37;;;10.90;;
22030;SDS011;11179;52.106;21.024;2023-04-22T03:11:52;24.20;;;11.70;;
22030;SDS011;11179;52.106;21.024;2023-04-22T03:14:18;20.13;;;10.90;;
22030;SDS011;11179;52.106;21.024;2023-04-22T03:16:43;25.30;;;11.50;;
22030;SDS011;11179;52.106;21.024;2023-04-22T03:19:08;26.07;;;11.27;;
22030;SDS011;11179;52.106;21.024;2023-04-22T03:21:34;22.37;;;10.27;;
22030;SDS011;11179;52.106;21.024;2023-04-22T03:23:59;25.20;;;11.40;;
22030;SDS011;11179;52.106;21.024;2023-04-22T03:26:24;21.43;;;10.57;;
22030;SDS011;11179;52.106;21.024;2023-04-22T03:28:50;25.90;;;11.60;;
22030;SDS011;11179;52.106;21.024;2023-04-22T03:31:15;22.80;;;11.30;;
22030;SDS011;11179;52.106;21.024;2023-04-22T03:33:40;18.93;;;10.00;;
22030;SDS011;11179;52.106;21.024;2023-04-22T03:36:06;23.13;;;11.40;;
22030;SDS011;11179;52.106;21.024;2023-04-22T03:38:31;22.83;;;11.53;;
22030;SDS011;11179;52.106;21.024;2023-04-22T03:40:57;20.00;;;9.80;;
22030;SDS011;11179;52.106;21.024;2023-04-22T03:43:22;21.07;;;10.73;;
22030;SDS011;11179;52.106;21.024;2023-04-22T03:45:49;23.33;;;11.00;;
22030;SDS011;11179;52.106;21.024;2023-04-22T03:48:15;27.70;;;11.10;;
22030;SDS011;11179;52.106;21.024;2023-04-22T03:50:40;23.40;;;10.17;;
22030;SDS011;11179;52.106;21.024;2023-04-22T03:53:05;20.67;;;10.80;;
22030;SDS011;11179;52.106;21.024;2023-04-22T03:55:31;24.13;;;10.33;;
22030;SDS011;11179;52.106;21.024;2023-04-22T03:57:57;21.43;;;10.53;;
22030;SDS011;11179;52.106;21.024;2023-04-22T04:00:22;21.40;;;10.37;;
22030;SDS011;11179;52.106;21.024;2023-04-22T04:02:47;23.33;;;10.80;;
22030;SDS011;11179;52.106;21.024;2023-04-22T04:05:13;22.00;;;10.97;;
22030;SDS011;11179;52.106;21.024;2023-04-22T04:07:38;38.90;;;10.70;;
22030;SDS011;11179;52.106;21.024;2023-04-22T04:10:04;22.30;;;9.77;;
22030;SDS011;11179;52.106;21.024;2023-04-22T04:12:30;25.37;;;9.80;;
22030;SDS011;11179;52.106;21.024;2023-04-22T04:14:55;24.00;;;9.73;;
22030;SDS011;11179;52.106;21.024;2023-04-22T04:17:20;19.30;;;9.10;;
22030;SDS011;11179;52.106;21.024;2023-04-22T04:19:50;25.87;;;10.43;;
22030;SDS011;11179;52.106;21.024;2023-04-22T04:22:16;28.90;;;9.57;;
22030;SDS011;11179;52.106;21.024;2023-04-22T04:24:42;21.83;;;9.50;;
22030;SDS011;11179;52.106;21.024;2023-04-22T04:27:08;17.93;;;9.23;;
22030;SDS011;11179;52.106;21.024;2023-04-22T04:29:34;23.07;;;9.17;;
22030;SDS011;11179;52.106;21.024;2023-04-22T04:31:59;19.97;;;9.90;;
22030;SDS011;11179;52.106;21.024;2023-04-22T04:34:25;21.60;;;10.33;;
22030;SDS011;11179;52.106;21.024;2023-04-22T04:36:50;27.93;;;10.63;;
22030;SDS011;11179;52.106;21.024;2023-04-22T04:39:16;23.93;;;10.90;;
22030;SDS011;11179;52.106;21.024;2023-04-22T04:41:41;21.77;;;9.57;;
22030;SDS011;11179;52.106;21.024;2023-04-22T04:44:07;20.60;;;9.33;;
22030;SDS011;11179;52.106;21.024;2023-04-22T04:46:33;29.83;;;10.50;;
22030;SDS011;11179;52.106;21.024;2023-04-22T04:48:58;25.50;;;10.60;;
22030;SDS011;11179;52.106;21.024;2023-04-22T04:51:23;26.00;;;11.70;;
22030;SDS011;11179;52.106;21.024;2023-04-22T04:53:49;26.77;;;12.20;;
22030;SDS011;11179;52.106;21.024;2023-04-22T04:56:14;35.07;;;12.60;;
22030;SDS011;11179;52.106;21.024;2023-04-22T04:58:40;25.37;;;12.07;;
22030;SDS011;11179;52.106;21.024;2023-04-22T05:01:06;29.37;;;13.00;;
22030;SDS011;11179;52.106;21.024;2023-04-22T05:03:31;35.77;;;12.30;;
22030;SDS011;11179;52.106;21.024;2023-04-22T05:05:57;25.97;;;11.70;;
22030;SDS011;11179;52.106;21.024;2023-04-22T05:08:22;20.80;;;11.40;;
22030;SDS011;11179;52.106;21.024;2023-04-22T05:10:47;22.80;;;11.90;;
22030;SDS011;11179;52.106;21.024;2023-04-22T05:13:13;25.63;;;12.07;;
22030;SDS011;11179;52.106;21.024;2023-04-22T05:15:38;25.53;;;12.20;;
22030;SDS011;11179;52.106;21.024;2023-04-22T05:18:04;24.07;;;11.93;;
22030;SDS011;11179;52.106;21.024;2023-04-22T05:20:30;22.77;;;12.30;;
22030;SDS011;11179;52.106;21.024;2023-04-22T05:22:55;33.30;;;12.30;;
22030;SDS011;11179;52.106;21.024;2023-04-22T05:25:21;27.20;;;12.60;;
22030;SDS011;11179;52.106;21.024;2023-04-22T05:27:46;39.03;;;14.10;;
22030;SDS011;11179;52.106;21.024;2023-04-22T05:30:11;31.47;;;13.00;;
22030;SDS011;11179;52.106;21.024;2023-04-22T05:32:37;31.83;;;12.40;;
22030;SDS011;11179;52.106;21.024;2023-04-22T05:35:02;31.17;;;12.43;;
22030;SDS011;11179;52.106;21.024;2023-04-22T05:37:27;34.33;;;11.00;;
22030;SDS011;11179;52.106;21.024;2023-04-22T05:39:53;39.00;;;12.47;;
22030;SDS011;11179;52.106;21.024;2023-04-22T05:42:18;22.27;;;10.63;;
22030;SDS011;11179;52.106;21.024;2023-04-22T05:44:43;20.07;;;9.13;;
22030;SDS011;11179;52.106;21.024;2023-04-22T05:47:08;28.33;;;9.00;;
22030;SDS011;11179;52.106;21.024;2023-04-22T05:49:34;20.97;;;9.43;;
22030;SDS011;11179;52.106;21.024;2023-04-22T05:51:59;16.10;;;9.57;;
22030;SDS011;11179;52.106;21.024;2023-04-22T05:54:24;17.13;;;9.40;;
22030;SDS011;11179;52.106;21.024;2023-04-22T05:56:50;23.50;;;8.40;;
22030;SDS011;11179;52.106;21.024;2023-04-22T05:59:15;20.97;;;8.47;;
22030;SDS011;11179;52.106;21.024;2023-04-22T06:01:41;14.20;;;7.70;;
22030;SDS011;11179;52.106;21.024;2023-04-22T06:04:06;10.40;;;7.00;;
22030;SDS011;11179;52.106;21.024;2023-04-22T06:06:34;16.53;;;7.47;;
22030;SDS011;11179;52.106;21.024;2023-04-22T06:08:59;11.20;;;6.63;;
22030;SDS011;11179;52.106;21.024;2023-04-22T06:11:25;15.20;;;7.30;;
22030;SDS011;11179;52.106;21.024;2023-04-22T06:13:50;17.03;;;8.07;;
22030;SDS011;11179;52.106;21.024;2023-04-22T06:16:16;14.23;;;6.73;;
22030;SDS011;11179;52.106;21.024;2023-04-22T06:18:42;12.70;;;7.67;;
22030;SDS011;11179;52.106;21.024;2023-04-22T06:21:07;20.77;;;9.03;;
22030;SDS011;11179;52.106;21.024;2023-04-22T06:23:33;15.70;;;8.50;;
22030;SDS011;11179;52.106;21.024;2023-04-22T06:25:58;14.07;;;7.50;;
22030;SDS011;11179;52.106;21.024;2023-04-22T06:28:25;18.47;;;8.07;;
22030;SDS011;11179;52.106;21.024;2023-04-22T06:30:51;15.37;;;7.83;;
22030;SDS011;11179;52.106;21.024;2023-04-22T06:33:16;20.67;;;8.80;;
22030;SDS011;11179;52.106;21.024;2023-04-22T06:35:42;16.67;;;7.57;;
22030;SDS011;11179;52.106;21.024;2023-04-22T06:38:07;14.00;;;7.60;;
22030;SDS011;11179;52.106;21.024;2023-04-22T06:40:32;16.30;;;7.03;;
22030;SDS011;11179;52.106;21.024;2023-04-22T06:42:57;16.53;;;7.37;;
22030;SDS011;11179;52.106;21.024;2023-04-22T06:45:23;18.13;;;6.60;;
22030;SDS011;11179;52.106;21.024;2023-04-22T06:47:51;22.60;;;7.50;;
22030;SDS011;11179;52.106;21.024;2023-04-22T06:50:18;14.50;;;7.10;;
22030;SDS011;11179;52.106;21.024;2023-04-22T06:52:43;18.60;;;6.80;;
22030;SDS011;11179;52.106;21.024;2023-04-22T06:55:09;13.70;;;6.27;;
22030;SDS011;11179;52.106;21.024;2023-04-22T06:57:34;14.00;;;7.27;;
22030;SDS011;11179;52.106;21.024;2023-04-22T07:00:00;16.53;;;5.97;;
22030;SDS011;11179;52.106;21.024;2023-04-22T07:02:25;10.13;;;5.40;;
22030;SDS011;11179;52.106;21.024;2023-04-22T07:04:51;12.30;;;5.70;;
22030;SDS011;11179;52.106;21.024;2023-04-22T07:07:16;14.50;;;5.37;;
22030;SDS011;11179;52.106;21.024;2023-04-22T07:09:42;13.30;;;5.43;;
22030;SDS011;11179;52.106;21.024;2023-04-22T07:12:07;14.00;;;6.10;;
22030;SDS011;11179;52.106;21.024;2023-04-22T07:14:32;16.93;;;5.37;;
22030;SDS011;11179;52.106;21.024;2023-04-22T07:16:58;12.33;;;5.70;;
22030;SDS011;11179;52.106;21.024;2023-04-22T07:19:24;16.00;;;5.17;;
22030;SDS011;11179;52.106;21.024;2023-04-22T07:21:49;10.93;;;5.10;;
22030;SDS011;11179;52.106;21.024;2023-04-22T07:24:15;10.13;;;5.37;;
22030;SDS011;11179;52.106;21.024;2023-04-22T07:26:41;10.77;;;4.80;;
22030;SDS011;11179;52.106;21.024;2023-04-22T07:29:07;9.13;;;4.80;;
22030;SDS011;11179;52.106;21.024;2023-04-22T07:31:35;9.77;;;4.90;;
22030;SDS011;11179;52.106;21.024;2023-04-22T07:34:01;13.23;;;4.67;;
22030;SDS011;11179;52.106;21.024;2023-04-22T07:36:27;9.00;;;4.73;;
22030;SDS011;11179;52.106;21.024;2023-04-22T07:38:52;9.60;;;4.87;;
22030;SDS011;11179;52.106;21.024;2023-04-22T07:41:18;10.33;;;4.70;;
22030;SDS011;11179;52.106;21.024;2023-04-22T07:43:43;11.77;;;5.50;;
22030;SDS011;11179;52.106;21.024;2023-04-22T07:46:08;13.53;;;5.17;;
22030;SDS011;11179;52.106;21.024;2023-04-22T07:48:34;14.97;;;4.83;;
22030;SDS011;11179;52.106;21.024;2023-04-22T07:50:59;10.07;;;4.80;;
22030;SDS011;11179;52.106;21.024;2023-04-22T07:53:24;14.33;;;6.00;;
22030;SDS011;11179;52.106;21.024;2023-04-22T07:55:50;11.43;;;5.47;;
22030;SDS011;11179;52.106;21.024;2023-04-22T07:58:15;13.80;;;5.43;;
22030;SDS011;11179;52.106;21.024;2023-04-22T08:00:41;12.87;;;5.57;;
22030;SDS011;11179;52.106;21.024;2023-04-22T08:03:06;9.87;;;5.40;;
22030;SDS011;11179;52.106;21.024;2023-04-22T08:05:31;13.90;;;6.20;;
22030;SDS011;11179;52.106;21.024;2023-04-22T08:07:57;12.73;;;5.57;;
22030;SDS011;11179;52.106;21.024;2023-04-22T08:10:22;14.57;;;5.87;;
22030;SDS011;11179;52.106;21.024;2023-04-22T08:12:47;9.80;;;5.00;;
22030;SDS011;11179;52.106;21.024;2023-04-22T08:15:13;14.20;;;5.77;;
22030;SDS011;11179;52.106;21.024;2023-04-22T08:17:38;13.03;;;6.00;;
22030;SDS011;11179;52.106;21.024;2023-04-22T08:20:04;11.60;;;5.63;;
22030;SDS011;11179;52.106;21.024;2023-04-22T08:22:30;12.77;;;4.60;;
22030;SDS011;11179;52.106;21.024;2023-04-22T08:24:56;15.23;;;5.27;;
22030;SDS011;11179;52.106;21.024;2023-04-22T08:27:21;8.80;;;4.67;;
22030;SDS011;11179;52.106;21.024;2023-04-22T08:29:47;10.97;;;5.07;;
22030;SDS011;11179;52.106;21.024;2023-04-22T08:32:12;16.13;;;4.40;;
22030;SDS011;11179;52.106;21.024;2023-04-22T08:34:37;13.40;;;5.00;;
22030;SDS011;11179;52.106;21.024;2023-04-22T08:37:03;10.93;;;5.60;;
22030;SDS011;11179;52.106;21.024;2023-04-22T08:39:28;14.43;;;5.57;;
22030;SDS011;11179;52.106;21.024;2023-04-22T08:41:54;10.90;;;5.33;;
22030;SDS011;11179;52.106;21.024;2023-04-22T08:44:20;10.50;;;5.40;;
22030;SDS011;11179;52.106;21.024;2023-04-22T08:46:46;12.47;;;4.90;;
22030;SDS011;11179;52.106;21.024;2023-04-22T08:49:16;11.33;;;5.50;;
22030;SDS011;11179;52.106;21.024;2023-04-22T08:51:43;10.63;;;4.70;;
22030;SDS011;11179;52.106;21.024;2023-04-22T08:54:09;10.07;;;4.37;;
22030;SDS011;11179;52.106;21.024;2023-04-22T08:56:35;8.90;;;4.37;;
22030;SDS011;11179;52.106;21.024;2023-04-22T08:59:04;8.50;;;4.03;;
22030;SDS011;11179;52.106;21.024;2023-04-22T09:01:30;8.30;;;4.33;;
22030;SDS011;11179;52.106;21.024;2023-04-22T09:03:57;9.57;;;4.20;;
22030;SDS011;11179;52.106;21.024;2023-04-22T09:06:24;9.70;;;4.43;;
22030;SDS011;11179;52.106;21.024;2023-04-22T09:08:51;8.33;;;4.00;;
22030;SDS011;11179;52.106;21.024;2023-04-22T09:11:17;10.47;;;4.70;;
22030;SDS011;11179;52.106;21.024;2023-04-22T09:13:42;6.87;;;3.70;;
22030;SDS011;11179;52.106;21.024;2023-04-22T09:16:08;8.40;;;4.17;;
22030;SDS011;11179;52.106;21.024;2023-04-22T09:18:43;12.23;;;4.83;;
22030;SDS011;11179;52.106;21.024;2023-04-22T09:21:10;15.20;;;5.50;;
22030;SDS011;11179;52.106;21.024;2023-04-22T09:24:10;10.17;;;3.87;;
22030;SDS011;11179;52.106;21.024;2023-04-22T09:26:27;8.23;;;3.40;;
22030;SDS011;11179;52.106;21.024;2023-04-22T09:28:55;6.60;;;3.53;;
22030;SDS011;11179;52.106;21.024;2023-04-22T09:31:22;9.37;;;3.73;;
22030;SDS011;11179;52.106;21.024;2023-04-22T09:33:49;13.30;;;3.73;;
22030;SDS011;11179;52.106;21.024;2023-04-22T09:36:20;9.00;;;3.73;;
22030;SDS011;11179;52.106;21.024;2023-04-22T09:38:59;7.07;;;3.60;;
22030;SDS011;11179;52.106;21.024;2023-04-22T09:41:31;7.03;;;3.67;;
22030;SDS011;11179;52.106;21.024;2023-04-22T09:44:02;7.97;;;4.07;;
22030;SDS011;11179;52.106;21.024;2023-04-22T09:46:29;14.33;;;4.70;;
22030;SDS011;11179;52.106;21.024;2023-04-22T09:48:57;8.63;;;4.13;;
22030;SDS011;11179;52.106;21.024;2023-04-22T09:51:23;13.40;;;4.27;;
22030;SDS011;11179;52.106;21.024;2023-04-22T09:54:02;6.80;;;3.63;;
22030;SDS011;11179;52.106;21.024;2023-04-22T09:56:44;9.50;;;4.10;;
22030;SDS011;11179;52.106;21.024;2023-04-22T09:59:10;13.13;;;4.63;;
22030;SDS011;11179;52.106;21.024;2023-04-22T10:01:37;10.70;;;4.33;;
22030;SDS011;11179;52.106;21.024;2023-04-22T10:04:04;9.43;;;4.43;;
22030;SDS011;11179;52.106;21.024;2023-04-22T10:06:31;8.83;;;4.40;;
22030;SDS011;11179;52.106;21.024;2023-04-22T10:08:58;13.10;;;4.27;;
22030;SDS011;11179;52.106;21.024;2023-04-22T10:11:24;8.00;;;4.13;;
22030;SDS011;11179;52.106;21.024;2023-04-22T10:13:49;10.23;;;3.47;;
22030;SDS011;11179;52.106;21.024;2023-04-22T10:16:14;10.63;;;4.50;;
22030;SDS011;11179;52.106;21.024;2023-04-22T10:18:42;9.63;;;4.30;;
22030;SDS011;11179;52.106;21.024;2023-04-22T10:21:09;13.40;;;4.43;;
22030;SDS011;11179;52.106;21.024;2023-04-22T10:23:34;10.17;;;4.10;;
22030;SDS011;11179;52.106;21.024;2023-04-22T10:26:00;10.73;;;4.40;;
22030;SDS011;11179;52.106;21.024;2023-04-22T10:28:27;12.20;;;4.20;;
22030;SDS011;11179;52.106;21.024;2023-04-22T10:30:53;9.40;;;4.07;;
22030;SDS011;11179;52.106;21.024;2023-04-22T10:38:33;12.37;;;4.80;;
22030;SDS011;11179;52.106;21.024;2023-04-22T10:41:00;11.03;;;4.80;;
22030;SDS011;11179;52.106;21.024;2023-04-22T10:46:06;15.03;;;5.30;;
22030;SDS011;11179;52.106;21.024;2023-04-22T10:48:47;12.50;;;5.07;;
22030;SDS011;11179;52.106;21.024;2023-04-22T10:54:07;11.80;;;5.17;;
22030;SDS011;11179;52.106;21.024;2023-04-22T11:02:23;10.57;;;4.97;;
22030;SDS011;11179;52.106;21.024;2023-04-22T11:04:49;10.03;;;5.10;;
22030;SDS011;11179;52.106;21.024;2023-04-22T11:15:04;10.00;;;5.20;;
22030;SDS011;11179;52.106;21.024;2023-04-22T11:17:30;11.30;;;5.10;;
22030;SDS011;11179;52.106;21.024;2023-04-22T11:19:59;9.13;;;4.80;;
22030;SDS011;11179;52.106;21.024;2023-04-22T11:22:25;11.40;;;5.10;;
22030;SDS011;11179;52.106;21.024;2023-04-22T11:24:54;9.20;;;4.70;;
22030;SDS011;11179;52.106;21.024;2023-04-22T11:27:19;11.40;;;5.40;;
22030;SDS011;11179;52.106;21.024;2023-04-22T11:30:09;15.13;;;6.10;;
22030;SDS011;11179;52.106;21.024;2023-04-22T11:32:43;12.00;;;5.23;;
22030;SDS011;11179;52.106;21.024;2023-04-22T11:35:11;11.70;;;4.60;;
22030;SDS011;11179;52.106;21.024;2023-04-22T11:40:13;8.40;;;4.70;;
22030;SDS011;11179;52.106;21.024;2023-04-22T11:42:39;9.30;;;4.20;;
22030;SDS011;11179;52.106;21.024;2023-04-22T11:45:05;10.20;;;4.93;;
22030;SDS011;11179;52.106;21.024;2023-04-22T11:47:32;9.37;;;4.23;;
22030;SDS011;11179;52.106;21.024;2023-04-22T11:50:04;9.20;;;4.63;;
22030;SDS011;11179;52.106;21.024;2023-04-22T11:52:43;10.30;;;4.57;;
22030;SDS011;11179;52.106;21.024;2023-04-22T11:55:15;8.60;;;5.23;;
22030;SDS011;11179;52.106;21.024;2023-04-22T11:57:42;9.13;;;4.53;;
22030;SDS011;11179;52.106;21.024;2023-04-22T12:00:10;9.83;;;5.40;;
22030;SDS011;11179;52.106;21.024;2023-04-22T12:02:37;11.33;;;5.63;;
22030;SDS011;11179;52.106;21.024;2023-04-22T12:05:03;9.57;;;4.27;;
22030;SDS011;11179;52.106;21.024;2023-04-22T12:07:28;8.07;;;3.87;;
22030;SDS011;11179;52.106;21.024;2023-04-22T12:09:57;11.60;;;4.00;;
22030;SDS011;11179;52.106;21.024;2023-04-22T12:12:23;11.73;;;4.93;;
22030;SDS011;11179;52.106;21.024;2023-04-22T12:14:49;8.93;;;4.43;;
22030;SDS011;11179;52.106;21.024;2023-04-22T12:17:15;10.83;;;4.10;;
22030;SDS011;11179;52.106;21.024;2023-04-22T12:19:45;10.93;;;4.73;;
22030;SDS011;11179;52.106;21.024;2023-04-22T12:22:11;12.13;;;5.13;;
22030;SDS011;11179;52.106;21.024;2023-04-22T12:24:36;9.43;;;4.30;;
22030;SDS011;11179;52.106;21.024;2023-04-22T12:27:08;8.60;;;4.30;;
22030;SDS011;11179;52.106;21.024;2023-04-22T12:29:34;14.87;;;4.30;;
22030;SDS011;11179;52.106;21.024;2023-04-22T12:31:59;13.53;;;4.53;;
22030;SDS011;11179;52.106;21.024;2023-04-22T12:34:25;10.53;;;5.53;;
22030;SDS011;11179;52.106;21.024;2023-04-22T12:36:50;13.87;;;3.90;;
22030;SDS011;11179;52.106;21.024;2023-04-22T12:39:15;9.27;;;4.37;;
22030;SDS011;11179;52.106;21.024;2023-04-22T12:41:41;7.03;;;3.43;;
22030;SDS011;11179;52.106;21.024;2023-04-22T12:44:06;8.37;;;3.77;;
22030;SDS011;11179;52.106;21.024;2023-04-22T12:46:33;9.40;;;4.40;;
22030;SDS011;11179;52.106;21.024;2023-04-22T12:49:00;11.37;;;3.60;;
22030;SDS011;11179;52.106;21.024;2023-04-22T12:51:25;8.83;;;4.43;;
22030;SDS011;11179;52.106;21.024;2023-04-22T12:53:51;9.77;;;4.70;;
22030;SDS011;11179;52.106;21.024;2023-04-22T12:56:16;8.20;;;4.50;;
22030;SDS011;11179;52.106;21.024;2023-04-22T12:58:42;9.53;;;4.57;;
22030;SDS011;11179;52.106;21.024;2023-04-22T13:01:07;9.03;;;4.50;;
22030;SDS011;11179;52.106;21.024;2023-04-22T13:03:32;9.63;;;4.20;;
22030;SDS011;11179;52.106;21.024;2023-04-22T13:05:58;10.37;;;4.30;;
22030;SDS011;11179;52.106;21.024;2023-04-22T13:08:23;8.27;;;3.70;;
22030;SDS011;11179;52.106;21.024;2023-04-22T13:10:48;9.10;;;4.27;;
22030;SDS011;11179;52.106;21.024;2023-04-22T13:13:14;9.43;;;4.37;;
22030;SDS011;11179;52.106;21.024;2023-04-22T13:15:39;8.37;;;4.30;;
22030;SDS011;11179;52.106;21.024;2023-04-22T13:18:05;10.03;;;4.17;;
22030;SDS011;11179;52.106;21.024;2023-04-22T13:20:30;8.90;;;4.27;;
22030;SDS011;11179;52.106;21.024;2023-04-22T13:22:55;7.40;;;3.33;;
22030;SDS011;11179;52.106;21.024;2023-04-22T13:25:21;7.30;;;3.10;;
22030;SDS011;11179;52.106;21.024;2023-04-22T13:27:46;6.27;;;3.23;;
22030;SDS011;11179;52.106;21.024;2023-04-22T13:30:11;8.37;;;3.93;;
22030;SDS011;11179;52.106;21.024;2023-04-22T13:32:37;11.40;;;3.47;;
22030;SDS011;11179;52.106;21.024;2023-04-22T13:35:02;9.03;;;4.07;;
22030;SDS011;11179;52.106;21.024;2023-04-22T13:37:28;8.43;;;3.80;;
22030;SDS011;11179;52.106;21.024;2023-04-22T13:39:54;9.77;;;3.73;;
22030;SDS011;11179;52.106;21.024;2023-04-22T13:42:19;9.10;;;4.30;;
22030;SDS011;11179;52.106;21.024;2023-04-22T13:44:45;13.57;;;3.80;;
22030;SDS011;11179;52.106;21.024;2023-04-22T13:47:11;8.53;;;3.53;;
22030;SDS011;11179;52.106;21.024;2023-04-22T13:49:36;8.70;;;4.23;;
22030;SDS011;11179;52.106;21.024;2023-04-22T13:52:02;7.63;;;3.00;;
22030;SDS011;11179;52.106;21.024;2023-04-22T13:54:27;6.93;;;3.10;;
22030;SDS011;11179;52.106;21.024;2023-04-22T13:56:52;8.20;;;3.00;;
22030;SDS011;11179;52.106;21.024;2023-04-22T13:59:18;9.27;;;3.00;;
22030;SDS011;11179;52.106;21.024;2023-04-22T14:01:43;8.93;;;2.87;;
22030;SDS011;11179;52.106;21.024;2023-04-22T14:04:08;6.70;;;3.00;;
22030;SDS011;11179;52.106;21.024;2023-04-22T14:06:34;7.77;;;3.20;;
22030;SDS011;11179;52.106;21.024;2023-04-22T14:08:59;8.77;;;3.30;;
22030;SDS011;11179;52.106;21.024;2023-04-22T14:11:25;7.60;;;3.10;;
22030;SDS011;11179;52.106;21.024;2023-04-22T14:13:50;7.17;;;2.97;;
22030;SDS011;11179;52.106;21.024;2023-04-22T14:16:16;10.13;;;3.10;;
22030;SDS011;11179;52.106;21.024;2023-04-22T14:18:42;7.37;;;3.13;;
22030;SDS011;11179;52.106;21.024;2023-04-22T14:21:09;9.67;;;3.10;;
22030;SDS011;11179;52.106;21.024;2023-04-22T14:23:36;7.80;;;3.50;;
22030;SDS011;11179;52.106;21.024;2023-04-22T14:26:03;9.97;;;4.13;;
22030;SDS011;11179;52.106;21.024;2023-04-22T14:28:30;6.23;;;3.00;;
22030;SDS011;11179;52.106;21.024;2023-04-22T14:30:55;8.17;;;3.50;;
22030;SDS011;11179;52.106;21.024;2023-04-22T14:33:21;7.90;;;3.87;;
22030;SDS011;11179;52.106;21.024;2023-04-22T14:35:48;9.20;;;3.93;;
22030;SDS011;11179;52.106;21.024;2023-04-22T14:38:14;6.80;;;3.10;;
22030;SDS011;11179;52.106;21.024;2023-04-22T14:40:40;5.73;;;2.70;;
22030;SDS011;11179;52.106;21.024;2023-04-22T14:43:05;7.47;;;3.10;;